createdAt,value
2023-10-31T00:01:24.337Z,7.50
2023-10-31T00:04:30.136Z,6.65
2023-10-31T00:07:35.473Z,5.58
2023-10-31T00:10:41.359Z,5.28
2023-10-31T00:13:46.715Z,10.68
2023-10-31T00:16:52.310Z,14.03
2023-10-31T00:19:57.994Z,5.72
2023-10-31T00:23:04.287Z,10.50
2023-10-31T00:26:10.684Z,7.28
2023-10-31T00:29:19.682Z,6.90
2023-10-31T00:32:24.923Z,11.20
2023-10-31T00:35:30.793Z,4.45
2023-10-31T00:38:36.699Z,9.75
2023-10-31T00:41:42.278Z,5.83
2023-10-31T00:44:47.146Z,14.23
2023-10-31T00:47:53.137Z,15.32
2023-10-31T00:51:00.324Z,10.82
2023-10-31T00:54:05.634Z,10.23
2023-10-31T00:57:10.865Z,23.77
2023-10-31T01:00:17.496Z,5.45
2023-10-31T01:03:23.482Z,9.28
2023-10-31T01:06:29.918Z,11.43
2023-10-31T01:09:35.180Z,19.02
2023-10-31T01:12:42.367Z,36.70
2023-10-31T01:15:47.497Z,28.62
2023-10-31T01:18:52.639Z,5.10
2023-10-31T01:21:58.226Z,16.80
2023-10-31T01:25:03.615Z,12.90
2023-10-31T01:28:10.610Z,17.92
2023-10-31T01:31:16.654Z,7.92
2023-10-31T01:34:22.152Z,6.62
2023-10-31T01:37:28.529Z,14.93
2023-10-31T01:40:34.989Z,10.65
2023-10-31T01:43:53.109Z,6.15
2023-10-31T01:46:58.562Z,12.05
2023-10-31T01:50:04.702Z,4.00
2023-10-31T01:53:09.909Z,7.12
2023-10-31T01:56:15.030Z,9.40
2023-10-31T01:59:21.385Z,8.03
2023-10-31T02:02:26.973Z,6.15
2023-10-31T02:05:34.648Z,24.30
2023-10-31T02:08:40.758Z,9.33
2023-10-31T02:11:45.763Z,13.93
2023-10-31T02:14:51.394Z,11.83
2023-10-31T02:17:57.881Z,10.80
2023-10-31T02:21:04.922Z,23.15
2023-10-31T02:24:18.258Z,20.05
2023-10-31T02:27:23.539Z,13.18
2023-10-31T02:30:30.373Z,17.30
2023-10-31T02:33:35.722Z,9.25
2023-10-31T02:36:41.378Z,14.75
2023-10-31T02:39:48.234Z,15.00
2023-10-31T02:42:54.771Z,15.30
2023-10-31T02:46:00.919Z,9.23
2023-10-31T02:49:07.326Z,18.55
2023-10-31T02:52:12.815Z,8.60
2023-10-31T02:55:19.732Z,12.10
2023-10-31T02:58:24.606Z,12.15
2023-10-31T03:01:30.333Z,20.05
2023-10-31T03:04:36.666Z,4.53
2023-10-31T03:07:42.751Z,17.95
2023-10-31T03:10:48.233Z,12.35
2023-10-31T03:13:53.446Z,11.88
2023-10-31T03:16:58.604Z,10.93
2023-10-31T03:20:04.998Z,7.35
2023-10-31T03:23:11.380Z,6.37
2023-10-31T03:26:17.046Z,22.05
2023-10-31T03:29:22.670Z,11.65
2023-10-31T03:32:28.224Z,11.93
2023-10-31T03:35:33.480Z,36.77
2023-10-31T03:38:39.834Z,13.15
2023-10-31T03:41:46.102Z,13.13
2023-10-31T03:44:51.469Z,26.85
2023-10-31T03:47:56.738Z,10.15
2023-10-31T03:51:02.087Z,22.67
2023-10-31T03:54:07.195Z,15.38
2023-10-31T03:57:13.237Z,28.45
2023-10-31T04:00:19.752Z,12.73
2023-10-31T04:03:25.402Z,37.63
2023-10-31T04:06:31.159Z,44.58
2023-10-31T04:09:37.397Z,16.90
2023-10-31T04:12:43.351Z,10.32
2023-10-31T04:15:48.595Z,8.48
2023-10-31T04:18:53.624Z,2.83
2023-10-31T04:21:58.766Z,4.60
2023-10-31T04:25:04.894Z,5.60
2023-10-31T04:28:11.233Z,14.20
2023-10-31T04:31:20.341Z,8.28
2023-10-31T04:34:25.411Z,3.25
2023-10-31T04:37:33.890Z,4.58
2023-10-31T04:40:38.592Z,10.58
2023-10-31T04:43:44.578Z,8.95
2023-10-31T04:46:50.106Z,18.80
2023-10-31T04:49:56.578Z,16.02
2023-10-31T04:53:02.407Z,5.05
2023-10-31T04:56:08.955Z,8.45
2023-10-31T04:59:15.105Z,3.58
2023-10-31T05:02:20.434Z,5.15
2023-10-31T05:05:25.669Z,6.72
2023-10-31T05:08:30.936Z,10.13
2023-10-31T05:11:36.261Z,1.98
2023-10-31T05:14:42.398Z,20.10
2023-10-31T05:17:48.161Z,8.53
2023-10-31T05:20:53.833Z,4.67
2023-10-31T05:23:59.750Z,25.32
2023-10-31T05:27:05.516Z,10.82
2023-10-31T05:30:11.529Z,7.67
2023-10-31T05:33:18.258Z,27.10
2023-10-31T05:36:36.485Z,2.75
2023-10-31T05:39:44.660Z,8.18
2023-10-31T05:42:50.713Z,15.95
2023-10-31T05:45:56.740Z,4.00
2023-10-31T05:49:01.815Z,7.33
2023-10-31T05:52:08.114Z,30.85
2023-10-31T05:55:14.251Z,9.60
2023-10-31T05:58:20.699Z,3.58
2023-10-31T06:01:26.692Z,3.42
2023-10-31T06:04:33.166Z,7.35
2023-10-31T06:07:39.566Z,6.95
2023-10-31T06:10:45.297Z,11.73
2023-10-31T06:13:51.667Z,7.90
2023-10-31T06:16:59.569Z,9.55
2023-10-31T06:20:04.734Z,5.00
2023-10-31T06:23:11.768Z,4.53
2023-10-31T06:26:17.298Z,13.50
2023-10-31T06:29:42.995Z,6.60
2023-10-31T06:32:30.887Z,6.55
2023-10-31T06:35:38.137Z,10.55
2023-10-31T06:38:43.017Z,14.50
2023-10-31T06:41:48.242Z,12.88
2023-10-31T06:44:53.728Z,16.15
2023-10-31T06:47:59.208Z,11.25
2023-10-31T06:51:05.403Z,12.53
2023-10-31T06:54:11.394Z,18.80
2023-10-31T06:57:16.626Z,19.32
2023-10-31T07:00:27.002Z,52.58
2023-10-31T07:03:32.298Z,41.13
2023-10-31T07:06:40.324Z,23.62
2023-10-31T07:09:49.569Z,19.05
2023-10-31T07:12:55.109Z,20.43
2023-10-31T07:16:00.798Z,18.98
2023-10-31T07:19:07.653Z,16.05
2023-10-31T07:22:12.928Z,15.83
2023-10-31T07:25:19.823Z,21.50
2023-10-31T07:28:25.170Z,11.22
2023-10-31T07:31:31.199Z,14.63
2023-10-31T07:34:37.889Z,18.82
2023-10-31T07:37:43.295Z,15.53
2023-10-31T07:40:49.078Z,14.73
2023-10-31T07:43:55.453Z,20.50
2023-10-31T07:47:01.065Z,19.00
2023-10-31T07:50:07.571Z,13.43
2023-10-31T07:53:14.079Z,15.08
2023-10-31T07:56:20.243Z,13.13
2023-10-31T07:59:26.302Z,17.98
2023-10-31T08:02:31.563Z,13.20
2023-10-31T08:05:37.100Z,13.78
2023-10-31T08:08:42.294Z,21.40
2023-10-31T08:11:47.770Z,11.20
2023-10-31T08:14:54.276Z,17.17
2023-10-31T08:18:01.573Z,12.68
2023-10-31T08:21:08.029Z,14.38
2023-10-31T08:24:13.293Z,13.50
2023-10-31T08:27:21.074Z,8.80
2023-10-31T08:30:28.393Z,9.73
2023-10-31T08:33:33.534Z,16.80
2023-10-31T08:36:40.074Z,16.55
2023-10-31T08:39:45.430Z,13.98
2023-10-31T08:42:51.101Z,11.97
2023-10-31T08:45:56.612Z,9.70
2023-10-31T08:49:02.294Z,12.80
2023-10-31T08:52:09.812Z,15.43
2023-10-31T08:55:15.518Z,9.03
2023-10-31T08:58:26.464Z,16.32
2023-10-31T09:01:33.336Z,20.27
2023-10-31T09:04:39.407Z,13.83
2023-10-31T09:07:45.053Z,11.97
2023-10-31T09:10:54.660Z,18.02
2023-10-31T09:13:59.906Z,10.82
2023-10-31T09:17:05.999Z,17.60
2023-10-31T09:20:12.162Z,11.30
2023-10-31T09:23:18.514Z,16.93
2023-10-31T09:26:25.871Z,12.35
2023-10-31T09:29:32.244Z,15.00
2023-10-31T09:32:39.372Z,11.68
2023-10-31T09:35:45.451Z,12.03
2023-10-31T09:38:50.629Z,11.25
2023-10-31T09:41:55.973Z,15.78
2023-10-31T09:45:04.472Z,16.93
2023-10-31T09:48:10.087Z,15.72
2023-10-31T09:51:18.996Z,11.08
2023-10-31T09:54:25.003Z,12.28
2023-10-31T09:57:31.158Z,9.83
2023-10-31T10:00:37.050Z,9.10
2023-10-31T10:03:51.829Z,10.90
2023-10-31T10:07:09.532Z,14.83
2023-10-31T10:10:15.471Z,17.50
2023-10-31T10:13:22.104Z,8.85
2023-10-31T10:16:27.863Z,19.80
2023-10-31T10:19:36.360Z,15.25
2023-10-31T10:22:44.384Z,10.90
2023-10-31T10:25:50.782Z,14.73
2023-10-31T10:28:56.793Z,11.63
2023-10-31T10:32:02.673Z,14.95
2023-10-31T10:35:10.041Z,11.28
2023-10-31T10:38:16.111Z,13.95
2023-10-31T10:41:22.344Z,7.53
2023-10-31T10:44:28.356Z,11.20
2023-10-31T10:47:34.843Z,10.48
2023-10-31T10:50:41.403Z,12.55
2023-10-31T10:53:53.406Z,10.25
2023-10-31T10:57:09.274Z,11.88
2023-10-31T11:00:21.128Z,10.55
2023-10-31T11:03:26.728Z,10.18
2023-10-31T11:49:09.940Z,11.95
2023-10-31T11:52:16.953Z,6.92
2023-10-31T11:55:29.163Z,15.65
2023-10-31T11:58:39.809Z,15.68
2023-10-31T12:01:46.647Z,12.65
2023-10-31T12:04:53.464Z,8.48
2023-10-31T12:08:01.357Z,11.73
2023-10-31T12:11:06.915Z,9.30
2023-10-31T12:14:17.061Z,11.25
2023-10-31T12:17:24.197Z,11.97
2023-10-31T12:20:31.012Z,13.22
2023-10-31T12:23:36.987Z,7.55
2023-10-31T12:26:42.965Z,16.27
2023-10-31T12:29:47.819Z,10.38
2023-10-31T12:32:55.089Z,10.68
2023-10-31T12:36:04.131Z,5.37
2023-10-31T12:39:11.351Z,14.00
2023-10-31T12:42:19.578Z,7.83
2023-10-31T12:45:26.110Z,8.23
2023-10-31T12:48:31.094Z,14.35
2023-10-31T12:51:37.479Z,5.25
2023-10-31T12:54:53.929Z,9.00
2023-10-31T12:57:59.975Z,7.42
2023-10-31T13:01:06.867Z,9.00
2023-10-31T13:04:12.594Z,13.00
2023-10-31T13:07:21.924Z,12.43
2023-10-31T13:10:27.495Z,7.55
2023-10-31T13:13:33.224Z,10.65
2023-10-31T13:16:38.206Z,7.05
2023-10-31T13:19:43.731Z,9.13
2023-10-31T13:22:51.646Z,9.73
2023-10-31T13:25:57.409Z,15.63
2023-10-31T13:29:02.669Z,9.53
2023-10-31T13:32:11.001Z,9.45
2023-10-31T13:35:19.837Z,7.87
2023-10-31T13:38:26.120Z,10.40
2023-10-31T13:41:31.546Z,10.78
2023-10-31T13:44:38.298Z,6.72
2023-10-31T13:47:46.177Z,7.67
2023-10-31T13:50:52.834Z,8.18
2023-10-31T13:53:58.951Z,9.70
2023-10-31T13:57:06.861Z,18.65
2023-10-31T14:00:12.991Z,7.28
2023-10-31T14:03:19.672Z,17.73
2023-10-31T14:06:26.912Z,9.13
2023-10-31T14:09:33.508Z,8.50
2023-10-31T14:12:39.422Z,9.50
2023-10-31T14:15:46.270Z,14.13
2023-10-31T14:18:54.287Z,14.78
2023-10-31T14:22:03.372Z,12.90
2023-10-31T14:25:11.084Z,15.72
2023-10-31T14:28:16.893Z,7.60
2023-10-31T14:31:23.366Z,11.88
2023-10-31T14:34:28.160Z,18.30
2023-10-31T14:37:36.116Z,11.25
2023-10-31T14:40:41.974Z,9.23
2023-10-31T14:43:47.637Z,12.13
2023-10-31T14:46:53.777Z,10.58
2023-10-31T14:49:59.532Z,11.73
2023-10-31T14:53:06.424Z,13.30
2023-10-31T14:56:14.183Z,17.00
2023-10-31T14:59:23.630Z,17.55
2023-10-31T15:02:28.684Z,16.60
2023-10-31T15:05:35.834Z,17.05
2023-10-31T15:08:41.584Z,16.82
2023-10-31T15:11:47.881Z,22.73
2023-10-31T15:14:53.900Z,13.95
2023-10-31T15:18:01.855Z,16.62
2023-10-31T15:21:08.201Z,19.07
2023-10-31T15:24:15.888Z,17.98
2023-10-31T15:27:23.694Z,16.77
2023-10-31T15:30:29.306Z,17.40
2023-10-31T15:33:34.448Z,18.50
2023-10-31T15:36:40.288Z,16.52
2023-10-31T15:39:45.480Z,16.70
2023-10-31T15:42:51.192Z,14.47
2023-10-31T15:45:56.599Z,24.05
2023-10-31T15:49:03.656Z,22.58
2023-10-31T15:52:10.101Z,23.15
2023-10-31T15:55:14.737Z,20.90
2023-10-31T15:58:19.720Z,21.77
2023-10-31T16:01:24.962Z,27.75
2023-10-31T16:04:31.787Z,23.83
2023-10-31T16:07:37.253Z,22.40
2023-10-31T16:10:42.658Z,21.12
2023-10-31T16:13:49.256Z,23.60
2023-10-31T16:16:55.297Z,28.47
2023-10-31T16:20:01.533Z,28.27
2023-10-31T16:23:07.282Z,21.45
2023-10-31T16:26:15.568Z,26.15
2023-10-31T16:29:23.470Z,24.57
2023-10-31T16:32:29.653Z,29.00
2023-10-31T16:35:35.867Z,30.40
2023-10-31T16:38:42.313Z,25.43
2023-10-31T16:41:48.124Z,35.20
2023-10-31T16:44:55.773Z,32.45
2023-10-31T16:48:03.700Z,26.70
2023-10-31T16:51:09.882Z,25.75
2023-10-31T16:54:15.487Z,29.72
2023-10-31T16:57:20.930Z,25.97
2023-10-31T17:00:27.104Z,26.27
2023-10-31T17:03:32.537Z,34.75
2023-10-31T17:06:38.964Z,25.48
2023-10-31T17:09:45.344Z,22.52
2023-10-31T17:12:51.289Z,25.55
2023-10-31T17:15:56.081Z,29.87
2023-10-31T17:19:02.728Z,27.67
2023-10-31T17:22:08.211Z,20.75
2023-10-31T17:25:13.357Z,21.45
2023-10-31T17:28:19.370Z,30.40
2023-10-31T17:31:18.283Z,20.48
2023-10-31T17:34:12.305Z,23.18
2023-10-31T17:37:18.111Z,22.25
2023-10-31T17:40:24.813Z,19.62
2023-10-31T17:43:30.574Z,18.80
2023-10-31T17:46:35.787Z,18.73
2023-10-31T17:49:40.690Z,18.73
2023-10-31T17:52:46.936Z,15.40
2023-10-31T17:55:55.427Z,21.40
2023-10-31T17:59:01.489Z,14.03
2023-10-31T18:02:07.310Z,20.30
2023-10-31T18:05:16.674Z,18.25
2023-10-31T18:08:21.860Z,17.45
2023-10-31T18:11:27.556Z,24.10
2023-10-31T18:14:34.333Z,21.27
2023-10-31T18:17:39.899Z,26.25
2023-10-31T18:20:46.061Z,21.60
2023-10-31T18:23:52.886Z,17.77
2023-10-31T18:26:58.519Z,24.50
2023-10-31T18:30:09.619Z,25.57
2023-10-31T18:33:15.034Z,30.20
2023-10-31T18:36:27.379Z,21.50
2023-10-31T18:39:28.448Z,19.95
2023-10-31T18:42:33.547Z,25.35
2023-10-31T18:45:39.000Z,22.80
2023-10-31T18:48:47.144Z,18.50
2023-10-31T18:51:53.742Z,24.50
2023-10-31T18:55:01.532Z,22.30
2023-10-31T18:58:06.518Z,23.35
2023-10-31T19:01:13.109Z,18.65
2023-10-31T19:04:21.518Z,16.85
2023-10-31T19:07:27.516Z,19.23
2023-10-31T19:10:34.139Z,20.85
2023-10-31T19:13:40.037Z,19.27
2023-10-31T19:16:45.462Z,29.18
2023-10-31T19:19:52.136Z,18.57
2023-10-31T19:22:58.604Z,27.60
2023-10-31T19:26:04.995Z,19.95
2023-10-31T19:29:10.811Z,24.95
2023-10-31T19:32:16.548Z,22.45
2023-10-31T19:35:23.115Z,15.40
2023-10-31T19:38:29.301Z,19.40
2023-10-31T19:41:35.885Z,21.70
2023-10-31T19:44:42.804Z,26.17
2023-10-31T19:47:49.377Z,26.70
2023-10-31T19:50:56.005Z,17.90
2023-10-31T19:54:00.846Z,16.15
2023-10-31T19:57:07.859Z,19.23
2023-10-31T20:00:13.590Z,18.57
2023-10-31T20:03:20.675Z,19.82
2023-10-31T20:06:27.249Z,18.77
2023-10-31T20:09:32.678Z,16.00
2023-10-31T20:12:38.602Z,22.02
2023-10-31T20:15:45.436Z,29.15
2023-10-31T20:18:51.499Z,19.17
2023-10-31T20:21:59.233Z,22.27
2023-10-31T20:25:04.403Z,28.25
2023-10-31T20:28:10.281Z,19.07
2023-10-31T20:31:15.987Z,18.05
2023-10-31T20:34:22.812Z,18.45
2023-10-31T20:37:28.532Z,21.62
2023-10-31T20:40:35.675Z,21.37
2023-10-31T20:43:42.231Z,26.35
2023-10-31T20:46:49.133Z,21.62
2023-10-31T20:49:55.034Z,17.98
2023-10-31T20:53:03.469Z,15.15
2023-10-31T20:56:09.213Z,18.90
2023-10-31T20:59:17.854Z,17.30
2023-10-31T21:02:24.315Z,21.50
2023-10-31T21:05:31.001Z,21.07
2023-10-31T21:08:38.168Z,17.85
2023-10-31T21:11:43.742Z,17.45
2023-10-31T21:14:50.019Z,15.72
2023-10-31T21:17:56.230Z,19.70
2023-10-31T21:21:02.632Z,18.73
2023-10-31T21:24:09.065Z,19.27
2023-10-31T21:27:14.546Z,18.98
2023-10-31T21:30:22.251Z,18.95
2023-10-31T21:33:30.582Z,16.40
2023-10-31T21:36:36.628Z,18.98
2023-10-31T21:39:42.475Z,15.98
2023-10-31T21:42:47.444Z,20.70
2023-10-31T21:45:53.461Z,18.25
2023-10-31T21:48:59.047Z,18.30
2023-10-31T21:52:05.161Z,25.35
2023-10-31T21:55:12.790Z,21.70
2023-10-31T21:58:18.867Z,21.90
2023-10-31T22:01:24.105Z,25.12
2023-10-31T22:04:29.600Z,17.05
2023-10-31T22:07:35.706Z,25.82
2023-10-31T22:10:42.113Z,20.65
2023-10-31T22:13:48.306Z,21.02
2023-10-31T22:16:53.718Z,18.60
2023-10-31T22:20:00.484Z,27.87
2023-10-31T22:23:06.757Z,25.15
2023-10-31T22:26:11.765Z,23.55
2023-10-31T22:29:19.537Z,22.90
2023-10-31T22:32:25.195Z,26.40
2023-10-31T22:35:31.005Z,28.83
2023-10-31T22:38:36.325Z,23.47
2023-10-31T22:41:41.826Z,21.73
2023-10-31T22:44:47.476Z,29.67
2023-10-31T22:47:55.351Z,30.10
2023-10-31T22:51:02.186Z,32.85
2023-10-31T22:54:08.434Z,32.50
2023-10-31T22:57:14.745Z,29.05
2023-10-31T23:00:26.379Z,30.23
2023-10-31T23:03:32.934Z,26.55
2023-10-31T23:06:40.714Z,31.20
2023-10-31T23:09:46.759Z,28.95
2023-10-31T23:12:54.287Z,31.52
2023-10-31T23:16:00.675Z,33.70
2023-10-31T23:19:05.752Z,25.62
2023-10-31T23:22:11.887Z,28.57
2023-10-31T23:25:17.313Z,30.52
2023-10-31T23:28:24.095Z,27.22
2023-10-31T23:31:30.682Z,36.75
2023-10-31T23:34:37.860Z,31.73
2023-10-31T23:37:45.726Z,25.82
2023-10-31T23:40:53.873Z,26.05
2023-10-31T23:44:00.282Z,33.78
2023-10-31T23:47:06.945Z,45.50
2023-10-31T23:50:13.750Z,46.73
2023-10-31T23:53:20.767Z,49.67
2023-10-31T23:56:27.645Z,69.03
2023-10-31T23:59:33.275Z,56.73
